createdAt,value
2018-12-13T00:01:03.044Z,0.90
2018-12-13T00:03:28.931Z,0.93
2018-12-13T00:05:55.757Z,0.86
2018-12-13T00:08:21.643Z,0.90
2018-12-13T00:10:50.860Z,0.98
2018-12-13T00:13:16.712Z,0.90
2018-12-13T00:15:46.572Z,0.88
2018-12-13T00:18:12.456Z,0.84
2018-12-13T00:20:40.375Z,0.81
2018-12-13T00:23:06.299Z,0.78
2018-12-13T00:25:33.993Z,0.71
2018-12-13T00:27:59.891Z,0.62
2018-12-13T00:30:28.713Z,0.67
2018-12-13T00:32:54.583Z,0.52
2018-12-13T00:35:20.452Z,0.54
2018-12-13T00:37:46.349Z,0.58
2018-12-13T00:40:12.240Z,0.66
2018-12-13T00:42:41.008Z,0.74
2018-12-13T00:45:07.000Z,0.75
2018-12-13T00:47:35.768Z,0.82
2018-12-13T00:50:01.811Z,0.96
2018-12-13T00:52:31.535Z,1.03
2018-12-13T00:54:57.433Z,1.09
2018-12-13T00:57:25.236Z,1.07
2018-12-13T00:59:51.127Z,1.08
2018-12-13T01:02:20.034Z,1.09
2018-12-13T01:04:48.093Z,1.14
2018-12-13T01:07:14.087Z,1.20
2018-12-13T01:09:39.951Z,1.17
2018-12-13T01:12:05.843Z,1.19
2018-12-13T01:14:31.736Z,1.00
2018-12-13T01:16:58.156Z,0.97
2018-12-13T01:19:27.786Z,1.05
2018-12-13T01:21:53.695Z,1.06
2018-12-13T01:24:20.669Z,1.09
2018-12-13T01:26:46.559Z,1.07
2018-12-13T01:29:15.250Z,1.00
2018-12-13T01:31:41.171Z,0.97
2018-12-13T01:34:09.966Z,0.93
2018-12-13T01:36:35.889Z,0.96
2018-12-13T01:39:04.931Z,0.99
2018-12-13T01:41:30.858Z,0.95
2018-12-13T01:43:59.181Z,0.96
2018-12-13T01:46:25.058Z,0.92
2018-12-13T01:48:54.239Z,0.90
2018-12-13T01:51:20.164Z,0.95
2018-12-13T01:53:46.051Z,1.02
2018-12-13T01:56:11.939Z,1.04
2018-12-13T01:58:37.858Z,1.08
2018-12-13T02:01:07.324Z,1.08
2018-12-13T02:03:33.198Z,1.14
2018-12-13T02:06:02.207Z,1.08
2018-12-13T02:08:28.123Z,1.14
2018-12-13T02:10:57.105Z,1.16
2018-12-13T02:13:22.975Z,1.12
2018-12-13T02:15:50.038Z,1.11
2018-12-13T02:18:15.886Z,1.10
2018-12-13T02:20:44.546Z,1.14
2018-12-13T02:23:10.431Z,0.08
2018-12-13T02:25:36.308Z,1.18
2018-12-13T02:28:02.335Z,1.23
2018-12-13T02:30:28.279Z,1.24
2018-12-13T02:32:57.738Z,1.27
2018-12-13T02:35:23.618Z,1.21
2018-12-13T02:37:51.485Z,1.18
2018-12-13T02:40:17.490Z,1.12
2018-12-13T02:42:46.298Z,1.17
2018-12-13T02:45:12.314Z,1.19
2018-12-13T02:47:42.157Z,1.23
2018-12-13T02:50:08.060Z,1.21
2018-12-13T02:52:36.956Z,1.15
2018-12-13T02:55:03.211Z,1.13
2018-12-13T02:57:30.891Z,1.08
2018-12-13T02:59:56.757Z,1.09
2018-12-13T03:02:22.656Z,1.11
2018-12-13T03:04:52.673Z,1.10
2018-12-13T03:07:18.937Z,1.13
2018-12-13T03:09:44.851Z,1.11
2018-12-13T03:12:10.748Z,1.17
2018-12-13T03:14:36.606Z,1.15
2018-12-13T03:17:02.884Z,1.15
2018-12-13T03:19:31.278Z,1.17
2018-12-13T03:21:57.165Z,1.19
2018-12-13T03:24:27.012Z,1.15
2018-12-13T03:26:52.919Z,0.87
2018-12-13T03:29:21.964Z,1.15
2018-12-13T03:31:47.840Z,1.11
2018-12-13T03:34:16.937Z,1.03
2018-12-13T03:36:42.873Z,1.02
2018-12-13T03:39:08.743Z,0.99
2018-12-13T03:41:34.671Z,1.06
2018-12-13T03:44:00.651Z,1.04
2018-12-13T03:46:27.543Z,0.95
2018-12-13T03:48:53.434Z,0.87
2018-12-13T03:51:22.567Z,0.81
2018-12-13T03:53:48.477Z,0.81
2018-12-13T03:56:17.875Z,0.81
2018-12-13T03:58:43.760Z,0.78
2018-12-13T04:01:11.452Z,0.80
2018-12-13T04:03:37.997Z,0.78
2018-12-13T04:06:07.274Z,0.74
2018-12-13T04:08:33.280Z,0.71
2018-12-13T04:11:00.956Z,0.61
2018-12-13T04:13:26.801Z,0.60
2018-12-13T04:15:52.678Z,0.51
2018-12-13T04:18:18.583Z,0.47
2018-12-13T04:20:44.531Z,-0.15
2018-12-13T04:23:13.722Z,0.41
2018-12-13T04:25:39.649Z,0.44
2018-12-13T04:28:07.457Z,0.36
2018-12-13T04:30:33.362Z,0.29
2018-12-13T04:33:02.247Z,0.19
2018-12-13T04:35:28.192Z,0.20
2018-12-13T04:37:56.641Z,0.23
2018-12-13T04:40:22.509Z,0.23
2018-12-13T04:42:51.463Z,0.24
2018-12-13T04:45:17.335Z,0.21
2018-12-13T04:47:47.093Z,0.20
2018-12-13T04:50:12.975Z,0.16
2018-12-13T04:52:38.852Z,0.11
2018-12-13T04:55:04.851Z,0.14
2018-12-13T04:57:30.717Z,0.14
2018-12-13T04:59:57.811Z,0.15
2018-12-13T05:02:23.739Z,-1.33
2018-12-13T05:04:52.555Z,0.20
2018-12-13T05:07:18.420Z,0.16
2018-12-13T05:09:47.345Z,0.16
2018-12-13T05:12:13.256Z,0.17
2018-12-13T05:14:43.779Z,0.21
2018-12-13T05:17:09.674Z,0.20
2018-12-13T05:19:36.504Z,0.19
2018-12-13T05:22:02.391Z,0.25
2018-12-13T05:24:31.808Z,0.24
2018-12-13T05:26:57.662Z,0.20
2018-12-13T05:29:23.576Z,0.21
2018-12-13T05:31:49.522Z,0.25
2018-12-13T05:34:15.433Z,0.22
2018-12-13T05:36:44.550Z,0.31
2018-12-13T05:39:10.441Z,0.33
2018-12-13T05:41:39.546Z,0.31
2018-12-13T05:44:05.425Z,0.31
2018-12-13T05:46:33.204Z,0.35
2018-12-13T05:48:59.167Z,0.28
2018-12-13T05:51:29.015Z,0.25
2018-12-13T05:53:54.907Z,0.29
2018-12-13T05:56:21.807Z,0.25
2018-12-13T05:58:47.715Z,0.23
2018-12-13T06:01:16.501Z,0.19
2018-12-13T06:03:42.487Z,0.13
2018-12-13T06:06:08.423Z,0.13
2018-12-13T06:08:34.325Z,0.14
2018-12-13T06:11:00.206Z,0.12
2018-12-13T06:13:29.893Z,0.15
2018-12-13T06:15:55.855Z,0.10
2018-12-13T06:18:23.426Z,0.13
2018-12-13T06:20:49.339Z,0.16
2018-12-13T06:23:19.058Z,0.15
2018-12-13T06:25:44.980Z,0.11
2018-12-13T06:28:12.870Z,-0.97
2018-12-13T06:30:38.778Z,0.12
2018-12-13T06:33:07.561Z,0.12
2018-12-13T06:35:33.484Z,0.18
2018-12-13T06:38:02.615Z,0.22
2018-12-13T06:40:28.518Z,0.34
2018-12-13T06:42:54.410Z,0.31
2018-12-13T06:45:20.297Z,0.34
2018-12-13T06:47:46.207Z,0.34
2018-12-13T06:50:15.427Z,0.28
2018-12-13T06:52:41.317Z,0.27
2018-12-13T06:55:08.471Z,0.30
2018-12-13T06:57:34.346Z,0.37
2018-12-13T07:00:04.434Z,-0.21
2018-12-13T07:02:30.420Z,0.35
2018-12-13T07:04:58.130Z,0.37
2018-12-13T07:07:24.012Z,0.38
2018-12-13T07:09:53.097Z,0.41
2018-12-13T07:12:19.022Z,0.37
2018-12-13T07:14:52.545Z,0.21
2018-12-13T07:17:18.416Z,0.21
2018-12-13T07:19:44.319Z,0.30
2018-12-13T07:22:10.252Z,0.36
2018-12-13T07:24:36.145Z,0.36
2018-12-13T07:27:02.040Z,0.31
2018-12-13T07:29:27.929Z,0.33
2018-12-13T07:31:53.813Z,0.37
2018-12-13T07:34:19.680Z,0.32
2018-12-13T07:36:49.447Z,0.35
2018-12-13T07:39:15.371Z,0.32
2018-12-13T07:41:44.437Z,0.36
2018-12-13T07:44:10.325Z,0.30
2018-12-13T07:46:38.151Z,0.31
2018-12-13T07:49:04.068Z,0.23
2018-12-13T07:51:32.486Z,0.28
2018-12-13T07:53:58.412Z,0.35
2018-12-13T07:56:24.334Z,0.44
2018-12-13T07:58:50.229Z,0.51
2018-12-13T08:01:16.097Z,0.56
2018-12-13T08:03:45.749Z,0.53
2018-12-13T08:06:11.608Z,0.59
2018-12-13T08:08:40.591Z,0.55
2018-12-13T08:11:06.475Z,0.59
2018-12-13T08:13:34.276Z,0.57
2018-12-13T08:16:00.181Z,0.64
2018-12-13T08:18:32.906Z,0.69
2018-12-13T08:20:58.763Z,0.55
2018-12-13T08:23:24.733Z,0.61
2018-12-13T08:25:50.594Z,0.66
2018-12-13T08:28:19.666Z,0.66
2018-12-13T08:30:45.569Z,0.67
2018-12-13T08:33:11.432Z,0.68
2018-12-13T08:35:37.426Z,0.65
2018-12-13T08:38:03.381Z,0.61
2018-12-13T08:40:30.247Z,0.63
2018-12-13T08:42:56.111Z,0.63
2018-12-13T08:45:24.505Z,0.69
2018-12-13T08:47:50.426Z,0.69
2018-12-13T08:50:19.690Z,0.71
2018-12-13T08:52:45.540Z,0.68
2018-12-13T08:55:14.257Z,0.78
2018-12-13T08:57:40.105Z,0.82
2018-12-13T09:00:09.025Z,0.10
2018-12-13T09:02:34.879Z,0.81
2018-12-13T09:05:04.200Z,0.76
2018-12-13T09:07:30.063Z,0.79
2018-12-13T09:09:55.953Z,0.77
2018-12-13T09:12:21.827Z,0.74
2018-12-13T09:14:47.711Z,0.68
2018-12-13T09:17:15.621Z,0.67
2018-12-13T09:19:41.476Z,0.64
2018-12-13T09:22:11.346Z,0.61
2018-12-13T09:24:37.332Z,0.70
2018-12-13T09:27:06.281Z,0.68
2018-12-13T09:29:32.121Z,0.60
2018-12-13T09:32:01.047Z,0.70
2018-12-13T09:34:26.934Z,0.64
2018-12-13T09:36:53.808Z,0.71
2018-12-13T09:39:19.697Z,0.73
2018-12-13T09:41:48.522Z,0.70
2018-12-13T09:44:16.287Z,0.64
2018-12-13T09:46:42.527Z,0.60
2018-12-13T09:49:08.391Z,0.56
2018-12-13T09:51:34.281Z,0.70
2018-12-13T09:54:01.274Z,0.56
2018-12-13T09:56:27.858Z,0.62
2018-12-13T09:59:03.212Z,0.61
2018-12-13T10:01:29.361Z,0.50
2018-12-13T10:03:55.269Z,0.53
2018-12-13T10:06:21.258Z,0.37
2018-12-13T10:08:47.178Z,0.52
2018-12-13T10:11:13.057Z,0.63
2018-12-13T10:13:39.976Z,0.76
2018-12-13T10:16:05.826Z,0.76
2018-12-13T10:18:35.737Z,0.69
2018-12-13T10:21:01.621Z,0.77
2018-12-13T10:23:27.586Z,0.81
2018-12-13T10:25:59.381Z,0.78
2018-12-13T10:28:21.357Z,0.87
2018-12-13T10:30:47.219Z,0.97
2018-12-13T10:33:13.114Z,0.96
2018-12-13T10:35:42.312Z,0.89
2018-12-13T10:38:08.170Z,0.95
2018-12-13T10:40:35.072Z,0.95
2018-12-13T10:43:00.973Z,0.90
2018-12-13T10:45:29.883Z,0.99
2018-12-13T10:47:55.783Z,1.05
2018-12-13T10:50:25.466Z,1.17
2018-12-13T10:52:51.453Z,1.20
2018-12-13T10:55:19.321Z,1.31
2018-12-13T10:57:45.223Z,1.30
2018-12-13T11:00:17.315Z,1.26
2018-12-13T11:02:57.774Z,1.36
2018-12-13T11:05:23.644Z,1.29
2018-12-13T11:07:49.626Z,1.30
2018-12-13T11:10:15.533Z,1.26
2018-12-13T11:12:41.384Z,1.27
2018-12-13T11:15:07.287Z,1.30
2018-12-13T11:17:33.158Z,1.24
2018-12-13T11:20:02.931Z,1.22
2018-12-13T11:22:28.888Z,1.22
2018-12-13T11:24:54.798Z,1.38
2018-12-13T11:30:24.048Z,1.22
2018-12-13T11:32:49.949Z,1.33
2018-12-13T11:35:15.841Z,1.41
2018-12-13T11:37:41.719Z,1.40
2018-12-13T11:40:07.616Z,1.33
2018-12-13T11:42:33.455Z,1.46
2018-12-13T11:44:59.358Z,1.42
2018-12-13T11:47:25.243Z,1.41
2018-12-13T11:49:51.144Z,1.41
2018-12-13T11:52:17.045Z,1.34
2018-12-13T11:54:43.057Z,1.15
2018-12-13T11:57:08.927Z,1.54
2018-12-13T11:59:34.786Z,1.50
2018-12-13T12:02:00.670Z,1.46
2018-12-13T12:04:26.495Z,1.34
2018-12-13T12:06:52.336Z,1.32
2018-12-13T12:09:18.378Z,1.21
2018-12-13T12:11:44.225Z,1.17
2018-12-13T12:14:10.210Z,1.15
2018-12-13T12:16:42.212Z,1.11
2018-12-13T12:19:08.429Z,1.16
2018-12-13T12:21:34.279Z,1.13
2018-12-13T12:24:00.150Z,1.20
2018-12-13T12:26:26.025Z,1.25
2018-12-13T12:28:51.944Z,1.31
2018-12-13T12:31:17.862Z,1.28
2018-12-13T12:33:43.725Z,1.28
2018-12-13T12:36:11.917Z,1.26
2018-12-13T12:38:38.007Z,1.29
2018-12-13T12:41:03.931Z,1.11
2018-12-13T12:43:29.801Z,1.16
2018-12-13T12:45:55.639Z,1.23
2018-12-13T12:48:21.483Z,1.24
2018-12-13T12:50:47.335Z,1.25
2018-12-13T12:53:13.193Z,1.18
2018-12-13T12:55:39.096Z,1.14
2018-12-13T12:58:05.326Z,1.08
2018-12-13T13:00:31.309Z,1.03
2018-12-13T13:02:58.608Z,1.01
2018-12-13T13:05:24.505Z,1.05
2018-12-13T13:07:51.501Z,1.03
2018-12-13T13:10:17.623Z,0.90
2018-12-13T13:12:43.469Z,0.83
2018-12-13T13:15:09.360Z,0.81
2018-12-13T13:17:35.227Z,0.85
2018-12-13T13:20:01.185Z,0.82
2018-12-13T13:22:27.046Z,0.90
2018-12-13T13:24:53.980Z,0.97
2018-12-13T13:27:20.040Z,1.01
2018-12-13T13:29:45.904Z,0.85
2018-12-13T13:32:11.877Z,0.84
2018-12-13T13:34:37.746Z,0.84
2018-12-13T13:37:03.813Z,0.79
2018-12-13T13:39:31.636Z,0.88
2018-12-13T13:41:57.702Z,0.90
2018-12-13T13:44:25.683Z,0.83
2018-12-13T13:46:52.845Z,0.78
2018-12-13T13:49:18.929Z,0.80
2018-12-13T13:51:44.785Z,0.80
2018-12-13T13:54:11.439Z,0.84
2018-12-13T13:56:37.309Z,0.86
2018-12-13T13:59:05.983Z,0.81
2018-12-13T14:01:31.815Z,0.84
2018-12-13T14:03:57.664Z,0.91
2018-12-13T14:06:23.549Z,1.01
2018-12-13T14:08:49.450Z,1.00
2018-12-13T14:11:19.140Z,1.06
2018-12-13T14:13:45.007Z,0.98
2018-12-13T14:16:14.065Z,0.91
2018-12-13T14:18:41.011Z,0.92
2018-12-13T14:21:07.019Z,0.99
2018-12-13T14:23:32.848Z,0.97
2018-12-13T14:26:02.443Z,0.99
2018-12-13T14:28:28.291Z,0.99
2018-12-13T14:30:58.160Z,0.90
2018-12-13T14:33:24.133Z,0.92
2018-12-13T14:35:50.983Z,0.83
2018-12-13T14:38:16.884Z,0.74
2018-12-13T14:40:42.737Z,0.75
2018-12-13T14:43:08.640Z,0.82
2018-12-13T14:45:34.546Z,0.84
2018-12-13T14:48:03.261Z,0.82
2018-12-13T14:52:53.640Z,0.72
2018-12-13T14:55:20.748Z,0.73
2018-12-13T14:57:46.610Z,0.80
2018-12-13T15:00:15.517Z,0.82
2018-12-13T15:02:41.424Z,0.79
2018-12-13T15:05:10.707Z,0.78
2018-12-13T15:07:36.557Z,0.75
2018-12-13T15:10:06.154Z,0.74
2018-12-13T15:12:32.128Z,0.81
2018-12-13T15:15:05.001Z,0.87
2018-12-13T15:17:31.019Z,0.90
2018-12-13T15:19:56.900Z,0.89
2018-12-13T15:22:22.744Z,0.90
2018-12-13T15:24:48.637Z,0.87
2018-12-13T15:27:14.480Z,0.77
2018-12-13T15:29:44.560Z,0.78
2018-12-13T15:32:10.506Z,0.81
2018-12-13T15:34:37.539Z,0.78
2018-12-13T15:37:03.864Z,0.81
2018-12-13T15:39:33.177Z,0.89
2018-12-13T15:41:59.008Z,0.83
2018-12-13T15:44:28.001Z,0.79
2018-12-13T15:46:53.891Z,0.80
2018-12-13T15:49:23.464Z,0.83
2018-12-13T15:51:49.381Z,0.77
2018-12-13T15:54:15.305Z,0.64
2018-12-13T15:56:41.172Z,0.52
2018-12-13T15:59:07.072Z,0.53
2018-12-13T16:01:33.797Z,0.74
2018-12-13T16:03:59.687Z,0.65
2018-12-13T16:06:29.495Z,0.59
2018-12-13T16:08:55.388Z,0.61
2018-12-13T16:11:24.515Z,0.69
2018-12-13T16:13:50.379Z,0.73
2018-12-13T16:16:18.329Z,0.78
2018-12-13T16:18:44.207Z,0.82
2018-12-13T16:21:13.939Z,0.77
2018-12-13T16:23:39.844Z,0.70
2018-12-13T16:26:08.845Z,0.62
2018-12-13T16:28:34.692Z,0.52
2018-12-13T16:31:00.554Z,0.60
2018-12-13T16:33:27.063Z,0.58
2018-12-13T16:35:53.219Z,0.54
2018-12-13T16:38:19.054Z,0.54
2018-12-13T16:40:45.020Z,0.59
2018-12-13T16:43:14.302Z,0.57
2018-12-13T16:45:40.186Z,0.56
2018-12-13T16:48:10.139Z,0.51
2018-12-13T16:50:36.122Z,0.60
2018-12-13T16:53:02.931Z,0.58
2018-12-13T16:55:28.823Z,0.57
2018-12-13T16:57:59.312Z,0.62
2018-12-13T17:00:25.386Z,0.64
2018-12-13T17:02:52.443Z,0.71
2018-12-13T17:05:18.416Z,0.71
2018-12-13T17:07:44.280Z,0.74
2018-12-13T17:10:16.566Z,0.75
2018-12-13T17:12:38.147Z,0.74
2018-12-13T17:15:05.289Z,0.72
2018-12-13T17:17:31.199Z,0.74
2018-12-13T17:19:59.024Z,0.75
2018-12-13T17:22:25.131Z,0.60
2018-12-13T17:24:56.423Z,0.78
2018-12-13T17:27:22.722Z,0.80
2018-12-13T17:29:48.563Z,0.84
2018-12-13T17:32:14.457Z,0.81
2018-12-13T17:34:43.202Z,0.82
2018-12-13T17:37:09.037Z,0.81
2018-12-13T17:39:37.673Z,0.80
2018-12-13T17:42:03.840Z,0.76
2018-12-13T17:44:29.739Z,0.75
2018-12-13T17:46:55.639Z,0.81
2018-12-13T17:49:21.657Z,0.83
2018-12-13T17:51:51.322Z,0.78
2018-12-13T17:54:17.220Z,0.83
2018-12-13T17:56:46.122Z,0.81
2018-12-13T17:59:12.023Z,0.73
2018-12-13T18:01:39.022Z,0.76
2018-12-13T18:04:04.905Z,0.81
2018-12-13T18:06:34.462Z,0.88
2018-12-13T18:09:00.383Z,0.87
2018-12-13T18:11:29.512Z,0.84
2018-12-13T18:13:55.518Z,0.85
2018-12-13T18:16:23.180Z,0.93
2018-12-13T18:18:49.035Z,0.77
2018-12-13T18:21:14.904Z,0.88
2018-12-13T18:23:40.776Z,0.90
2018-12-13T18:26:06.666Z,0.83
2018-12-13T18:28:35.880Z,0.95
2018-12-13T18:31:01.867Z,0.98
2018-12-13T18:33:29.547Z,1.05
2018-12-13T18:35:55.400Z,1.06
2018-12-13T18:38:23.981Z,0.98
2018-12-13T18:40:49.872Z,0.93
2018-12-13T18:43:18.787Z,0.93
2018-12-13T18:45:44.678Z,0.93
2018-12-13T18:48:13.994Z,0.96
2018-12-13T18:50:39.948Z,0.96
2018-12-13T18:53:09.151Z,0.97
2018-12-13T18:55:34.985Z,0.90
2018-12-13T18:58:00.965Z,0.93
2018-12-13T19:00:26.837Z,1.07
2018-12-13T19:02:52.837Z,1.10
2018-12-13T19:05:20.953Z,1.14
2018-12-13T19:07:46.864Z,1.12
2018-12-13T19:10:15.992Z,1.03
2018-12-13T19:12:41.885Z,0.95
2018-12-13T19:15:09.838Z,1.05
2018-12-13T19:17:35.715Z,1.04
2018-12-13T19:20:04.579Z,1.07
2018-12-13T19:22:30.474Z,1.08
2018-12-13T19:24:59.930Z,1.16
2018-12-13T19:27:25.790Z,1.16
2018-12-13T19:29:54.668Z,1.12
2018-12-13T19:32:20.530Z,1.02
2018-12-13T19:34:46.390Z,1.04
2018-12-13T19:37:12.268Z,0.94
2018-12-13T19:39:38.146Z,0.93
2018-12-13T19:42:05.659Z,0.88
2018-12-13T19:44:31.487Z,0.96
2018-12-13T19:47:00.380Z,1.01
2018-12-13T19:49:26.309Z,1.03
2018-12-13T19:51:55.956Z,0.99
2018-12-13T19:54:21.982Z,1.02
2018-12-13T19:56:49.954Z,0.91
2018-12-13T19:59:15.807Z,0.90
2018-12-13T20:01:44.695Z,0.89
2018-12-13T20:04:10.551Z,0.83
2018-12-13T20:06:40.224Z,0.89
2018-12-13T20:09:06.216Z,0.90
2018-12-13T20:11:32.228Z,0.85
2018-12-13T20:13:58.082Z,0.86
2018-12-13T20:16:23.964Z,0.93
2018-12-13T20:18:50.828Z,0.86
2018-12-13T20:21:16.734Z,0.82
2018-12-13T20:23:45.575Z,0.83
2018-12-13T20:26:11.498Z,0.82
2018-12-13T20:28:40.432Z,0.80
2018-12-13T20:31:06.294Z,0.85
2018-12-13T20:33:34.684Z,0.80
2018-12-13T20:36:00.569Z,0.80
2018-12-13T20:38:30.056Z,0.75
2018-12-13T20:41:00.920Z,0.80
2018-12-13T20:43:24.864Z,0.81
2018-12-13T20:45:50.723Z,0.75
2018-12-13T20:48:16.666Z,0.83
2018-12-13T20:50:42.611Z,0.83
2018-12-13T20:53:08.587Z,0.84
2018-12-13T20:55:36.244Z,0.89
2018-12-13T20:58:02.236Z,0.84
2018-12-13T21:00:31.047Z,0.84
2018-12-13T21:02:56.925Z,0.94
2018-12-13T21:05:26.022Z,0.94
2018-12-13T21:07:53.967Z,0.95
2018-12-13T21:10:21.062Z,0.94
2018-12-13T21:15:16.100Z,0.95
2018-12-13T21:17:41.973Z,0.92
2018-12-13T21:20:09.688Z,0.95
2018-12-13T21:22:35.588Z,0.91
2018-12-13T21:25:01.562Z,0.89
2018-12-13T21:27:27.480Z,0.84
2018-12-13T21:29:53.450Z,0.95
2018-12-13T21:32:22.631Z,0.96
2018-12-13T21:34:48.467Z,1.02
2018-12-13T21:37:16.157Z,1.02
2018-12-13T21:39:42.023Z,1.01
2018-12-13T21:42:10.819Z,1.07
2018-12-13T21:44:36.717Z,1.07
2018-12-13T21:47:05.561Z,1.01
2018-12-13T21:49:31.438Z,1.06
2018-12-13T21:52:00.089Z,1.04
2018-12-13T21:54:26.020Z,1.00
2018-12-13T21:56:56.035Z,1.03
2018-12-13T21:59:21.956Z,1.06
2018-12-13T22:01:47.831Z,0.99
2018-12-13T22:04:13.750Z,1.01
2018-12-13T22:06:39.650Z,0.97
2018-12-13T22:09:08.823Z,0.98
2018-12-13T22:11:34.746Z,1.01
2018-12-13T22:14:01.466Z,0.82
2018-12-13T22:16:27.335Z,0.82
2018-12-13T22:18:56.367Z,0.89
2018-12-13T22:21:22.224Z,0.88
2018-12-13T22:23:51.847Z,0.83
2018-12-13T22:26:17.762Z,0.74
2018-12-13T22:28:47.547Z,0.83
2018-12-13T22:31:13.455Z,0.83
2018-12-13T22:33:41.250Z,0.84
2018-12-13T22:36:07.151Z,0.89
2018-12-13T22:38:33.040Z,0.87
2018-12-13T22:40:58.902Z,0.86
2018-12-13T22:43:24.863Z,0.78
2018-12-13T22:45:52.129Z,0.80
2018-12-13T22:48:18.046Z,0.89
2018-12-13T22:50:46.905Z,0.92
2018-12-13T22:53:13.096Z,0.92
2018-12-13T22:55:42.546Z,0.76
2018-12-13T22:58:08.438Z,0.71
2018-12-13T23:00:36.377Z,0.67
2018-12-13T23:03:03.107Z,0.69
2018-12-13T23:05:37.010Z,0.68
2018-12-13T23:08:03.264Z,0.59
2018-12-13T23:10:29.797Z,0.62
2018-12-13T23:12:55.697Z,0.71
2018-12-13T23:15:21.633Z,0.74
2018-12-13T23:17:47.540Z,0.68
2018-12-13T23:20:13.495Z,0.69
2018-12-13T23:22:39.362Z,0.78
2018-12-13T23:25:05.383Z,0.63
2018-12-13T23:27:32.256Z,0.70
2018-12-13T23:29:58.169Z,0.73
2018-12-13T23:32:29.445Z,0.80
2018-12-13T23:34:55.322Z,0.75
2018-12-13T23:37:21.723Z,0.75
2018-12-13T23:39:47.587Z,0.78
2018-12-13T23:42:16.462Z,0.83
2018-12-13T23:44:42.404Z,0.76
2018-12-13T23:47:12.274Z,0.75
2018-12-13T23:49:38.182Z,0.70
2018-12-13T23:52:04.085Z,0.79
2018-12-13T23:54:32.792Z,0.77
2018-12-13T23:56:59.131Z,0.82
2018-12-13T23:59:25.000Z,0.74
